ftmx51

TAF MMAA 090444Z 0906/1012 33005KT P6SM SKC TX31/0918Z TN24/0913Z 
         FM091800 24010KT P6SM SKC 
         FM100300 34005KT P6SM SCT015=
TAF MMMX 090444Z 0906/1012 14005KT P6SM SKC TX25/0921Z TN09/0912Z 
         FM091200 04005KT 5SM HZ SKC 
         FM091800 25010KT P6SM SKC 
         FM092100 35010KT 6SM HZ SKC 
         FM100300 04005KT P6SM SKC=
TAF MMTM 090444Z 0906/1006 00000KT P6SM SCT015 BKN200 
         FM091000 14005KT 3SM HZ BKN015 
         TEMPO 0911/0915 2SM -RA BR OVC010 
         FM091600 06005KT 5SM HZ BKN015 
         FM100300 12005KT P6SM SCT015=
TAF MMTO 090444Z 0906/1012 00000KT 5SM HZ SKC TX23/0921Z TN01/0913Z 
         TEMPO 0911/0915 3SM BR SCT020 
         FM091800 30005KT 5SM HZ SKC 
         FM100300 00000KT P6SM SKC=
TAF MMVR 090444Z 0906/1006 00000KT 3SM BR BKN015 TX30/0921Z TN20/0912Z
         TEMPO 0911/0915 2SM BR HZ BKN010 
         FM091600 12005KT 3SM HZ SCT015 
         BECMG 0917/0918 SCT020 
         FM092100 12005KT 5SM HZ SCT020 
         FM100300 07005KT P6SM SCT200=